createdAt,value
2023-03-07T00:02:21.568Z,40.83
2023-03-07T00:07:16.261Z,53.63
2023-03-07T00:09:43.663Z,40.95
2023-03-07T00:12:11.257Z,48.67
2023-03-07T00:14:40.107Z,47.92
2023-03-07T00:17:07.438Z,39.58
2023-03-07T00:19:34.844Z,48.03
2023-03-07T00:22:02.175Z,43.92
2023-03-07T00:24:29.594Z,48.45
2023-03-07T00:26:56.922Z,45.45
2023-03-07T00:29:24.400Z,43.67
2023-03-07T00:31:51.781Z,39.10
2023-03-07T00:34:19.366Z,46.20
2023-03-07T00:36:46.818Z,53.35
2023-03-07T00:39:14.537Z,40.42
2023-03-07T00:41:41.923Z,49.58
2023-03-07T00:44:09.414Z,46.30
2023-03-07T00:46:36.722Z,40.22
2023-03-07T00:49:04.263Z,39.35
2023-03-07T00:51:31.721Z,43.83
2023-03-07T00:53:59.132Z,44.17
2023-03-07T00:56:27.008Z,49.45
2023-03-07T00:58:54.605Z,40.17
2023-03-07T01:01:24.216Z,42.83
2023-03-07T01:03:53.842Z,43.83
2023-03-07T01:06:30.053Z,42.63
2023-03-07T01:09:07.394Z,38.58
2023-03-07T01:11:53.683Z,43.70
2023-03-07T01:14:21.262Z,44.88
2023-03-07T01:16:51.304Z,45.45
2023-03-07T01:19:19.122Z,44.30
2023-03-07T01:21:46.669Z,42.13
2023-03-07T01:24:16.133Z,49.60
2023-03-07T01:26:43.852Z,49.47
2023-03-07T01:29:11.929Z,44.10
2023-03-07T01:31:39.547Z,50.22
2023-03-07T01:34:07.227Z,42.55
2023-03-07T01:36:36.957Z,46.65
2023-03-07T01:39:14.113Z,40.97
2023-03-07T01:41:55.553Z,45.08
2023-03-07T01:44:27.006Z,46.67
2023-03-07T01:47:00.001Z,40.78
2023-03-07T01:49:54.816Z,42.20
2023-03-07T01:52:28.065Z,45.65
2023-03-07T01:55:03.288Z,47.00
2023-03-07T01:57:37.063Z,48.13
2023-03-07T02:00:10.088Z,42.40
2023-03-07T02:02:49.683Z,40.30
2023-03-07T02:05:33.075Z,41.97
2023-03-07T02:08:03.006Z,44.25
2023-03-07T02:10:33.960Z,37.90
2023-03-07T02:13:01.503Z,41.97
2023-03-07T02:15:28.896Z,46.00
2023-03-07T02:17:58.792Z,42.17
2023-03-07T02:20:26.150Z,40.72
2023-03-07T02:22:54.741Z,46.67
2023-03-07T02:25:40.850Z,44.47
2023-03-07T02:28:13.134Z,43.55
2023-03-07T02:30:53.617Z,36.72
2023-03-07T02:33:24.957Z,41.60
2023-03-07T02:36:08.463Z,46.20
2023-03-07T02:38:43.053Z,41.50
2023-03-07T02:41:13.164Z,42.33
2023-03-07T02:43:40.537Z,42.22
2023-03-07T02:46:09.390Z,45.55
2023-03-07T02:48:36.685Z,44.67
2023-03-07T02:51:04.253Z,42.03
2023-03-07T02:53:32.165Z,40.70
2023-03-07T02:55:59.521Z,36.05
2023-03-07T02:58:26.829Z,39.35
2023-03-07T03:00:54.202Z,40.30
2023-03-07T03:03:21.518Z,41.15
2023-03-07T03:05:49.072Z,39.72
2023-03-07T03:08:16.488Z,42.45
2023-03-07T03:10:43.812Z,42.88
2023-03-07T03:13:11.917Z,39.55
2023-03-07T03:15:41.347Z,45.95
2023-03-07T03:18:08.666Z,42.65
2023-03-07T03:20:42.786Z,47.45
2023-03-07T03:23:10.137Z,38.90
2023-03-07T03:25:40.143Z,46.17
2023-03-07T03:28:08.571Z,38.67
2023-03-07T03:30:36.472Z,35.67
2023-03-07T03:33:04.929Z,38.17
2023-03-07T03:35:34.998Z,38.15
2023-03-07T03:38:02.820Z,40.63
2023-03-07T03:40:31.190Z,36.70
2023-03-07T03:42:58.677Z,39.63
2023-03-07T03:45:26.507Z,43.03
2023-03-07T03:47:54.078Z,42.78
2023-03-07T03:50:23.739Z,42.08
2023-03-07T03:52:51.248Z,35.53
2023-03-07T03:55:18.603Z,44.50
2023-03-07T03:57:45.975Z,41.53
2023-03-07T04:00:15.372Z,38.88
2023-03-07T04:02:43.256Z,41.72
2023-03-07T04:05:14.340Z,42.70
2023-03-07T04:07:41.700Z,43.83
2023-03-07T04:10:09.692Z,45.78
2023-03-07T04:12:37.087Z,40.20
2023-03-07T04:15:07.553Z,40.55
2023-03-07T04:17:35.869Z,38.58
2023-03-07T04:20:04.863Z,44.08
2023-03-07T04:22:32.940Z,34.45
2023-03-07T04:25:03.116Z,41.40
2023-03-07T04:27:30.713Z,40.25
2023-03-07T04:29:58.278Z,39.35
2023-03-07T04:32:26.395Z,42.78
2023-03-07T04:34:53.761Z,37.38
2023-03-07T04:37:21.094Z,46.53
2023-03-07T04:39:48.455Z,43.35
2023-03-07T04:42:15.755Z,40.70
2023-03-07T04:44:43.098Z,37.55
2023-03-07T04:47:10.481Z,45.03
2023-03-07T04:49:38.880Z,43.58
2023-03-07T04:52:07.425Z,50.65
2023-03-07T04:54:34.915Z,44.53
2023-03-07T04:57:03.972Z,42.33
2023-03-07T04:59:31.512Z,40.88
2023-03-07T05:01:58.852Z,44.58
2023-03-07T05:04:26.269Z,50.28
2023-03-07T05:06:53.821Z,39.70
2023-03-07T05:09:21.231Z,39.58
2023-03-07T05:11:48.599Z,45.20
2023-03-07T05:14:16.155Z,44.67
2023-03-07T05:16:43.553Z,42.03
2023-03-07T05:19:11.786Z,50.42
2023-03-07T05:21:40.878Z,41.45
2023-03-07T05:24:08.928Z,44.00
2023-03-07T05:26:39.290Z,44.53
2023-03-07T05:29:06.635Z,46.40
2023-03-07T05:31:34.066Z,43.08
2023-03-07T05:34:01.771Z,43.50
2023-03-07T05:36:29.158Z,50.08
2023-03-07T05:38:57.103Z,42.25
2023-03-07T05:41:25.077Z,48.88
2023-03-07T05:43:54.930Z,47.83
2023-03-07T05:46:23.028Z,46.20
2023-03-07T05:48:50.422Z,44.78
2023-03-07T05:51:17.740Z,45.17
2023-03-07T05:53:46.549Z,43.90
2023-03-07T05:56:14.773Z,45.33
2023-03-07T05:58:42.651Z,50.05
2023-03-07T06:01:10.424Z,44.50
2023-03-07T06:03:37.863Z,44.45
2023-03-07T06:06:05.498Z,49.17
2023-03-07T06:08:32.977Z,46.97
2023-03-07T06:11:02.049Z,53.50
2023-03-07T06:13:31.093Z,46.08
2023-03-07T06:15:58.490Z,45.95
2023-03-07T06:18:26.327Z,51.70
2023-03-07T06:21:05.320Z,46.28
2023-03-07T06:23:37.262Z,49.92
2023-03-07T06:26:10.443Z,48.38
2023-03-07T06:28:39.790Z,51.85
2023-03-07T06:31:09.719Z,48.15
2023-03-07T06:33:37.345Z,47.10
2023-03-07T06:36:10.579Z,51.05
2023-03-07T06:38:40.067Z,46.80
2023-03-07T06:41:11.084Z,50.17
2023-03-07T06:43:38.971Z,51.85
2023-03-07T06:46:07.513Z,48.25
2023-03-07T06:51:10.154Z,52.75
2023-03-07T06:53:42.806Z,47.15
2023-03-07T06:56:10.371Z,47.05
2023-03-07T06:58:39.182Z,52.55
2023-03-07T07:01:10.005Z,50.83
2023-03-07T07:03:37.332Z,47.20
2023-03-07T07:06:04.830Z,51.63
2023-03-07T07:08:32.188Z,54.15
2023-03-07T07:10:59.770Z,50.15
2023-03-07T07:13:27.996Z,48.25
2023-03-07T07:15:55.396Z,49.55
2023-03-07T07:18:24.757Z,50.97
2023-03-07T07:20:55.585Z,58.95
2023-03-07T07:23:23.937Z,46.80
2023-03-07T07:25:54.651Z,45.45
2023-03-07T07:28:22.290Z,47.28
2023-03-07T07:30:49.712Z,50.90
2023-03-07T07:33:17.201Z,52.38
2023-03-07T07:35:50.884Z,58.20
2023-03-07T07:38:18.888Z,57.20
2023-03-07T07:40:46.238Z,54.17
2023-03-07T07:43:16.792Z,56.50
2023-03-07T07:45:55.089Z,55.22
2023-03-07T07:48:22.787Z,55.10
2023-03-07T07:50:50.120Z,54.60
2023-03-07T07:53:17.938Z,52.55
2023-03-07T07:55:46.220Z,59.88
2023-03-07T07:58:15.989Z,59.35
2023-03-07T08:00:43.530Z,47.33
2023-03-07T08:03:10.921Z,55.58
2023-03-07T08:05:38.338Z,50.25
2023-03-07T08:08:05.842Z,50.22
2023-03-07T08:10:33.276Z,52.15
2023-03-07T08:13:00.711Z,53.50
2023-03-07T08:15:30.064Z,55.45
2023-03-07T08:17:58.567Z,56.88
2023-03-07T08:20:25.890Z,53.45
2023-03-07T08:22:53.151Z,56.10
2023-03-07T08:25:23.745Z,56.00
2023-03-07T08:28:09.759Z,58.53
2023-03-07T08:30:37.667Z,60.42
2023-03-07T08:33:05.080Z,56.03
2023-03-07T08:35:32.612Z,60.63
2023-03-07T08:38:00.616Z,57.97
2023-03-07T08:40:29.957Z,56.88
2023-03-07T08:42:59.248Z,57.10
2023-03-07T08:45:26.937Z,58.40
2023-03-07T08:47:56.061Z,60.53
2023-03-07T08:50:25.970Z,62.47
2023-03-07T08:52:53.912Z,55.00
2023-03-07T08:55:21.309Z,58.63
2023-03-07T08:57:48.786Z,55.22
2023-03-07T09:00:17.830Z,63.50
2023-03-07T09:02:46.333Z,61.42
2023-03-07T09:05:13.671Z,61.28
2023-03-07T09:07:43.505Z,56.75
2023-03-07T09:10:11.965Z,59.65
2023-03-07T09:12:39.284Z,56.00
2023-03-07T09:15:07.088Z,53.85
2023-03-07T09:17:35.384Z,55.00
2023-03-07T09:20:03.451Z,53.95
2023-03-07T09:22:30.764Z,59.38
2023-03-07T09:24:58.066Z,53.70
2023-03-07T09:27:25.452Z,54.80
2023-03-07T09:29:52.792Z,55.45
2023-03-07T09:32:20.245Z,50.50
2023-03-07T09:34:47.591Z,53.35
2023-03-07T09:37:15.106Z,50.53
2023-03-07T09:39:42.397Z,52.50
2023-03-07T09:42:35.520Z,53.88
2023-03-07T09:45:31.455Z,54.33
2023-03-07T09:48:35.419Z,47.60
2023-03-07T09:51:15.156Z,45.20
2023-03-07T09:54:06.055Z,53.80
2023-03-07T09:56:40.881Z,51.22
2023-03-07T09:59:24.104Z,51.13
2023-03-07T10:02:15.680Z,53.88
2023-03-07T10:04:54.593Z,49.65
2023-03-07T10:07:28.067Z,53.35
2023-03-07T10:09:59.749Z,51.25
2023-03-07T10:12:45.199Z,53.55
2023-03-07T10:15:34.035Z,50.08
2023-03-07T10:18:35.120Z,47.60
2023-03-07T10:21:53.279Z,47.38
2023-03-07T10:24:45.436Z,49.47
2023-03-07T10:29:49.324Z,46.97
2023-03-07T10:32:52.920Z,48.17
2023-03-07T10:35:22.720Z,51.10
2023-03-07T10:37:58.653Z,47.08
2023-03-07T10:40:42.796Z,50.35
2023-03-07T10:43:27.349Z,48.40
2023-03-07T10:46:26.259Z,46.30
2023-03-07T10:49:00.359Z,47.17
2023-03-07T10:51:53.331Z,42.67
2023-03-07T10:54:24.589Z,45.75
2023-03-07T10:57:05.645Z,48.53
2023-03-07T10:59:33.560Z,33.97
2023-03-07T11:02:02.781Z,42.58
2023-03-07T11:04:44.528Z,42.42
2023-03-07T11:07:34.469Z,36.40
2023-03-07T11:10:35.169Z,39.47
2023-03-07T11:13:19.126Z,38.55
2023-03-07T11:15:46.931Z,34.53
2023-03-07T11:18:30.290Z,30.95
2023-03-07T11:20:58.665Z,31.88
2023-03-07T11:23:30.834Z,34.53
2023-03-07T11:26:22.667Z,30.90
2023-03-07T11:29:12.150Z,32.88
2023-03-07T11:32:04.093Z,34.95
2023-03-07T11:34:51.193Z,37.90
2023-03-07T11:37:33.088Z,37.95
2023-03-07T11:40:31.679Z,31.40
2023-03-07T11:43:04.762Z,29.80
2023-03-07T11:45:53.101Z,27.73
2023-03-07T11:48:31.981Z,27.33
2023-03-07T11:50:59.876Z,33.08
2023-03-07T11:53:41.298Z,31.17
2023-03-07T11:56:33.836Z,31.77
2023-03-07T11:59:13.476Z,33.35
2023-03-07T12:01:52.649Z,33.08
2023-03-07T12:04:26.120Z,32.95
2023-03-07T12:07:12.092Z,31.05
2023-03-07T12:09:53.148Z,27.60
2023-03-07T12:12:23.373Z,28.67
2023-03-07T12:14:53.523Z,27.88
2023-03-07T12:17:47.685Z,27.08
2023-03-07T12:20:26.340Z,28.45
2023-03-07T12:23:05.786Z,28.50
2023-03-07T12:25:41.959Z,32.40
2023-03-07T12:28:21.806Z,33.00
2023-03-07T12:31:20.245Z,29.13
2023-03-07T12:33:48.078Z,27.40
2023-03-07T12:36:22.676Z,28.88
2023-03-07T12:38:56.896Z,29.70
2023-03-07T12:41:47.979Z,31.35
2023-03-07T12:44:32.939Z,29.00
2023-03-07T12:47:11.226Z,20.88
2023-03-07T12:49:55.585Z,25.77
2023-03-07T12:52:40.010Z,25.90
2023-03-07T12:55:31.475Z,26.17
2023-03-07T12:58:13.578Z,22.70
2023-03-07T13:00:47.236Z,26.60
2023-03-07T13:03:58.284Z,19.30
2023-03-07T13:06:26.627Z,18.85
2023-03-07T13:08:57.653Z,23.98
2023-03-07T13:11:27.640Z,22.65
2023-03-07T13:13:58.371Z,17.33
2023-03-07T13:16:36.123Z,22.33
2023-03-07T13:19:42.843Z,18.25
2023-03-07T13:22:16.395Z,20.65
2023-03-07T13:25:22.400Z,21.58
2023-03-07T13:27:52.028Z,19.33
2023-03-07T13:30:21.798Z,19.65
2023-03-07T13:32:52.180Z,23.67
2023-03-07T13:35:29.048Z,22.58
2023-03-07T13:38:04.486Z,17.20
2023-03-07T13:40:47.066Z,19.45
2023-03-07T13:43:25.466Z,23.15
2023-03-07T13:46:00.342Z,22.00
2023-03-07T13:48:27.997Z,19.83
2023-03-07T13:51:00.756Z,21.65
2023-03-07T13:53:28.039Z,24.20
2023-03-07T13:56:03.463Z,20.35
2023-03-07T13:58:34.733Z,18.80
2023-03-07T14:01:14.792Z,19.98
2023-03-07T14:03:53.041Z,18.02
2023-03-07T14:06:33.692Z,18.42
2023-03-07T14:09:05.191Z,16.85
2023-03-07T14:11:44.804Z,19.98
2023-03-07T14:14:38.154Z,20.48
2023-03-07T14:17:27.535Z,18.60
2023-03-07T14:20:17.604Z,19.48
2023-03-07T14:23:03.375Z,16.13
2023-03-07T14:25:36.526Z,15.45
2023-03-07T14:28:20.109Z,16.45
2023-03-07T14:30:56.841Z,17.20
2023-03-07T14:33:38.270Z,20.67
2023-03-07T14:36:25.693Z,19.53
2023-03-07T14:39:02.165Z,20.35
2023-03-07T14:41:46.015Z,18.30
2023-03-07T14:44:34.586Z,19.52
2023-03-07T14:47:26.693Z,21.05
2023-03-07T14:50:17.682Z,19.60
2023-03-07T14:52:45.765Z,18.83
2023-03-07T14:55:19.876Z,19.38
2023-03-07T14:57:52.898Z,17.90
2023-03-07T15:00:20.488Z,18.67
2023-03-07T15:02:55.461Z,25.17
2023-03-07T15:05:32.677Z,18.33
2023-03-07T15:08:00.108Z,16.00
2023-03-07T15:10:30.370Z,20.73
2023-03-07T15:12:58.398Z,22.63
2023-03-07T15:15:45.362Z,25.45
2023-03-07T15:18:21.356Z,25.50
2023-03-07T15:20:50.977Z,20.45
2023-03-07T15:23:22.488Z,24.00
2023-03-07T15:25:53.833Z,19.00
2023-03-07T15:28:29.786Z,27.55
2023-03-07T15:30:59.572Z,19.05
2023-03-07T15:33:30.746Z,15.40
2023-03-07T15:36:13.168Z,22.33
2023-03-07T15:38:47.980Z,17.65
2023-03-07T15:41:25.202Z,22.80
2023-03-07T15:44:19.652Z,21.08
2023-03-07T15:46:55.600Z,20.02
2023-03-07T15:49:27.773Z,17.08
2023-03-07T15:51:58.377Z,19.45
2023-03-07T15:54:33.390Z,18.80
2023-03-07T15:57:04.991Z,21.65
2023-03-07T15:59:37.188Z,20.10
2023-03-07T16:02:33.598Z,16.95
2023-03-07T16:05:19.317Z,19.33
2023-03-07T16:07:47.686Z,21.88
2023-03-07T16:10:15.370Z,30.20
2023-03-07T16:12:46.432Z,21.92
2023-03-07T16:15:15.952Z,25.85
2023-03-07T16:17:44.067Z,29.23
2023-03-07T16:20:16.632Z,28.27
2023-03-07T16:22:44.594Z,22.60
2023-03-07T16:25:15.787Z,25.30
2023-03-07T16:27:53.249Z,23.77
2023-03-07T16:30:26.495Z,20.17
2023-03-07T16:32:54.413Z,17.30
2023-03-07T16:35:24.496Z,16.67
2023-03-07T16:37:53.201Z,16.75
2023-03-07T16:40:21.440Z,12.82
2023-03-07T16:42:50.558Z,15.43
2023-03-07T16:45:20.131Z,17.58
2023-03-07T16:47:50.370Z,12.35
2023-03-07T16:50:20.799Z,10.88
2023-03-07T16:52:51.633Z,15.63
2023-03-07T16:55:19.576Z,12.35
2023-03-07T16:57:50.684Z,15.05
2023-03-07T17:00:21.162Z,17.93
2023-03-07T17:02:50.405Z,16.67
2023-03-07T17:05:23.485Z,13.27
2023-03-07T17:07:54.853Z,15.48
2023-03-07T17:10:23.714Z,19.98
2023-03-07T17:12:51.034Z,11.98
2023-03-07T17:15:24.384Z,14.38
2023-03-07T17:17:51.961Z,20.58
2023-03-07T17:20:25.636Z,12.48
2023-03-07T17:22:53.915Z,17.17
2023-03-07T17:25:22.547Z,23.05
2023-03-07T17:27:57.549Z,12.75
2023-03-07T17:30:28.224Z,10.95
2023-03-07T17:32:55.686Z,14.23
2023-03-07T17:35:23.609Z,9.70
2023-03-07T17:37:53.003Z,12.45
2023-03-07T17:40:21.734Z,15.55
2023-03-07T17:42:52.409Z,20.58
2023-03-07T17:45:19.964Z,14.32
2023-03-07T17:47:51.974Z,15.15
2023-03-07T17:52:53.948Z,17.13
2023-03-07T17:55:24.397Z,14.73
2023-03-07T17:57:52.302Z,9.35
2023-03-07T18:00:22.812Z,13.10
2023-03-07T18:02:50.495Z,15.95
2023-03-07T18:05:21.412Z,12.02
2023-03-07T18:07:51.422Z,13.25
2023-03-07T18:10:19.078Z,13.05
2023-03-07T18:12:46.769Z,10.95
2023-03-07T18:15:16.554Z,15.85
2023-03-07T18:17:49.161Z,13.68
2023-03-07T18:20:21.483Z,12.93
2023-03-07T18:22:49.235Z,11.85
2023-03-07T18:25:18.025Z,12.50
2023-03-07T18:27:45.927Z,12.48
2023-03-07T18:30:14.274Z,11.43
2023-03-07T18:32:42.179Z,13.57
2023-03-07T18:35:09.812Z,15.80
2023-03-07T18:37:37.148Z,14.90
2023-03-07T18:40:05.091Z,12.25
2023-03-07T18:42:33.334Z,14.38
2023-03-07T18:45:00.665Z,12.07
2023-03-07T18:47:28.081Z,9.30
2023-03-07T18:50:00.476Z,14.40
2023-03-07T18:52:27.757Z,14.48
2023-03-07T18:54:55.128Z,23.48
2023-03-07T18:57:22.384Z,14.27
2023-03-07T18:59:51.162Z,12.48
2023-03-07T19:02:18.944Z,13.60
2023-03-07T19:04:47.795Z,11.63
2023-03-07T19:07:15.060Z,23.77
2023-03-07T19:09:44.600Z,11.15
2023-03-07T19:12:13.272Z,10.00
2023-03-07T19:14:40.724Z,14.02
2023-03-07T19:17:08.024Z,13.15
2023-03-07T19:19:36.082Z,14.45
2023-03-07T19:22:04.196Z,13.98
2023-03-07T19:24:32.526Z,16.33
2023-03-07T19:27:00.044Z,13.40
2023-03-07T19:29:27.426Z,11.10
2023-03-07T19:31:57.788Z,16.27
2023-03-07T19:34:25.285Z,9.40
2023-03-07T19:36:52.649Z,12.32
2023-03-07T19:39:20.637Z,12.45
2023-03-07T19:41:48.093Z,14.52
2023-03-07T19:44:16.098Z,13.73
2023-03-07T19:46:46.335Z,20.38
2023-03-07T19:49:14.935Z,13.23
2023-03-07T19:51:42.582Z,14.05
2023-03-07T19:54:13.196Z,12.57
2023-03-07T19:56:42.495Z,17.67
2023-03-07T19:59:11.474Z,12.77
2023-03-07T20:01:38.920Z,12.63
2023-03-07T20:04:07.763Z,16.65
2023-03-07T20:06:35.449Z,16.23
2023-03-07T20:09:03.148Z,14.52
2023-03-07T20:11:35.109Z,16.30
2023-03-07T20:16:35.291Z,13.88
2023-03-07T20:19:05.638Z,11.75
2023-03-07T20:21:35.737Z,18.58
2023-03-07T20:24:04.651Z,18.30
2023-03-07T20:26:35.372Z,17.35
2023-03-07T20:29:05.460Z,11.90
2023-03-07T20:31:36.478Z,11.93
2023-03-07T20:34:03.891Z,11.60
2023-03-07T20:36:33.820Z,11.68
2023-03-07T20:39:05.448Z,11.15
2023-03-07T20:41:32.884Z,15.90
2023-03-07T20:44:03.635Z,15.80
2023-03-07T20:46:35.429Z,13.18
2023-03-07T20:49:03.801Z,15.75
2023-03-07T20:51:37.788Z,13.77
2023-03-07T20:54:07.980Z,16.73
2023-03-07T20:56:37.112Z,18.15
2023-03-07T20:59:05.258Z,14.25
2023-03-07T21:01:34.443Z,14.02
2023-03-07T21:04:07.073Z,15.57
2023-03-07T21:06:35.832Z,14.63
2023-03-07T21:09:08.361Z,10.23
2023-03-07T21:11:37.509Z,12.68
2023-03-07T21:14:04.931Z,15.98
2023-03-07T21:16:32.403Z,14.90
2023-03-07T21:19:01.680Z,11.68
2023-03-07T21:21:31.157Z,14.63
2023-03-07T21:23:58.611Z,18.48
2023-03-07T21:26:29.752Z,12.55
2023-03-07T21:28:58.130Z,12.57
2023-03-07T21:31:30.787Z,11.63
2023-03-07T21:34:01.459Z,15.45
2023-03-07T21:36:31.752Z,15.68
2023-03-07T21:39:00.161Z,15.50
2023-03-07T21:41:27.799Z,17.27
2023-03-07T21:43:56.177Z,15.32
2023-03-07T21:46:24.393Z,16.08
2023-03-07T21:48:52.140Z,15.82
2023-03-07T21:51:19.865Z,14.13
2023-03-07T21:53:47.291Z,15.23
2023-03-07T21:56:23.915Z,11.85
2023-03-07T21:58:52.101Z,14.73
2023-03-07T22:01:22.170Z,15.15
2023-03-07T22:03:52.308Z,16.00
2023-03-07T22:06:19.872Z,17.58
2023-03-07T22:08:47.154Z,16.05
2023-03-07T22:11:14.506Z,15.48
2023-03-07T22:13:42.153Z,15.18
2023-03-07T22:16:15.155Z,15.40
2023-03-07T22:18:42.568Z,16.98
2023-03-07T22:21:17.207Z,17.00
2023-03-07T22:23:44.775Z,15.50
2023-03-07T22:26:12.871Z,15.18
2023-03-07T22:28:41.048Z,16.98
2023-03-07T22:31:11.703Z,14.65
2023-03-07T22:33:40.581Z,18.65
2023-03-07T22:36:11.786Z,16.75
2023-03-07T22:38:39.394Z,17.60
2023-03-07T22:41:11.012Z,14.35
2023-03-07T22:43:39.212Z,14.68
2023-03-07T22:46:07.455Z,15.23
2023-03-07T22:48:35.203Z,22.52
2023-03-07T22:51:02.629Z,23.48
2023-03-07T22:53:31.235Z,21.20
2023-03-07T22:55:59.604Z,19.80
2023-03-07T22:58:30.156Z,19.05
2023-03-07T23:00:57.494Z,18.20
2023-03-07T23:03:24.968Z,17.08
2023-03-07T23:05:52.329Z,17.20
2023-03-07T23:08:20.517Z,14.95
2023-03-07T23:10:47.840Z,18.35
2023-03-07T23:13:18.197Z,18.67
2023-03-07T23:15:45.622Z,17.05
2023-03-07T23:18:13.079Z,22.35
2023-03-07T23:20:40.346Z,16.67
2023-03-07T23:23:07.699Z,20.05
2023-03-07T23:25:41.245Z,19.15
2023-03-07T23:28:10.125Z,15.40
2023-03-07T23:30:42.131Z,20.65
2023-03-07T23:35:36.735Z,24.13
2023-03-07T23:38:04.816Z,13.88
2023-03-07T23:40:32.725Z,21.75
2023-03-07T23:43:00.081Z,18.35
2023-03-07T23:45:28.349Z,17.02
2023-03-07T23:47:55.713Z,19.13
2023-03-07T23:50:23.746Z,17.23
2023-03-07T23:52:51.056Z,14.80
2023-03-07T23:55:18.382Z,19.33
2023-03-07T23:57:46.736Z,23.02
